Time;durP1;ratioP1;P1;durP2;ratioP2;P2;SDS_P1;SDS_P2;PMS_P1;PMS_P2;Temp;Humidity;BMP_temperature;BMP_pressure;BME280_temperature;BME280_humidity;BME280_pressure;Samples;Min_cycle;Max_cycle;Signal;HPM_P1;HPM_P2
2024/01/08 00:01:33;;;;;;;5.68;4.68;;;;;;;;;;4992340;28;20210;-70
2024/01/08 00:03:59;;;;;;;6.72;5.35;;;;;;;;;;4992820;28;20202;-70
2024/01/08 00:06:25;;;;;;;8.37;4.73;;;;;;;;;;4992383;28;20204;-70
2024/01/08 00:08:51;;;;;;;9.13;5.72;;;;;;;;;;4992598;28;20415;-71
2024/01/08 00:11:17;;;;;;;14.07;6.13;;;;;;;;;;4992337;28;20181;-70
2024/01/08 00:13:43;;;;;;;9.93;6.18;;;;;;;;;;4992211;28;20603;-71
2024/01/08 00:16:09;;;;;;;7.90;4.72;;;;;;;;;;4993023;28;20265;-70
2024/01/08 00:18:35;;;;;;;10.83;6.10;;;;;;;;;;4993083;28;20250;-70
2024/01/08 00:21:02;;;;;;;6.60;4.45;;;;;;;;;;4994650;28;20434;-69
2024/01/08 00:23:29;;;;;;;9.05;6.00;;;;;;;;;;4993971;28;20204;-69
2024/01/08 00:25:55;;;;;;;6.72;4.80;;;;;;;;;;4996190;28;20573;-70
2024/01/08 00:28:21;;;;;;;6.00;4.57;;;;;;;;;;4997957;28;20240;-70
2024/01/08 00:30:47;;;;;;;5.83;2.90;;;;;;;;;;4997376;28;20175;-70
2024/01/08 00:33:13;;;;;;;5.97;4.10;;;;;;;;;;4996838;28;20422;-69
2024/01/08 00:35:39;;;;;;;6.63;3.83;;;;;;;;;;4997085;28;20442;-70
2024/01/08 00:38:05;;;;;;;6.65;4.00;;;;;;;;;;4997396;28;20443;-70
2024/01/08 00:40:31;;;;;;;4.60;3.40;;;;;;;;;;4996714;28;20214;-69
2024/01/08 00:42:57;;;;;;;5.80;4.43;;;;;;;;;;4995869;28;20547;-70
2024/01/08 00:45:23;;;;;;;6.07;3.67;;;;;;;;;;4996210;28;20922;-69
2024/01/08 00:47:49;;;;;;;4.95;3.90;;;;;;;;;;4996367;28;20175;-70
2024/01/08 00:50:16;;;;;;;6.03;3.55;;;;;;;;;;4996558;28;20214;-70
2024/01/08 00:52:42;;;;;;;11.95;4.65;;;;;;;;;;4996068;28;20250;-70
2024/01/08 00:55:11;;;;;;;4.90;3.55;;;;;;;;;;4996651;28;20314;-69
2024/01/08 00:57:37;;;;;;;4.75;3.40;;;;;;;;;;4996054;28;20179;-70
2024/01/08 01:00:04;;;;;;;5.53;3.42;;;;;;;;;;4996473;28;20178;-71
2024/01/08 01:02:30;;;;;;;6.35;3.25;;;;;;;;;;4995696;28;20326;-70
2024/01/08 01:04:56;;;;;;;5.10;3.97;;;;;;;;;;4996074;28;20215;-71
2024/01/08 01:07:22;;;;;;;5.10;3.35;;;;;;;;;;4996032;28;20436;-70
2024/01/08 01:09:48;;;;;;;5.23;3.27;;;;;;;;;;4995999;28;20347;-69
2024/01/08 01:12:14;;;;;;;6.00;2.47;;;;;;;;;;4995799;28;20433;-69
2024/01/08 01:14:40;;;;;;;6.23;3.27;;;;;;;;;;4996373;28;20417;-69
2024/01/08 01:17:06;;;;;;;4.73;3.00;;;;;;;;;;5044779;23;20491;-70
2024/01/08 01:19:32;;;;;;;4.07;3.20;;;;;;;;;;5035567;28;20409;-70
2024/01/08 01:21:58;;;;;;;4.35;2.55;;;;;;;;;;5017585;28;20210;-70
2024/01/08 01:24:24;;;;;;;7.80;3.80;;;;;;;;;;5035661;28;20229;-69
2024/01/08 01:26:50;;;;;;;4.05;3.10;;;;;;;;;;5035040;28;20877;-69
2024/01/08 01:29:16;;;;;;;4.35;3.15;;;;;;;;;;5034927;28;20177;-70
2024/01/08 01:31:43;;;;;;;4.90;3.17;;;;;;;;;;5034858;28;20236;-69
2024/01/08 01:34:10;;;;;;;4.32;3.00;;;;;;;;;;5017384;28;21011;-71
2024/01/08 01:36:36;;;;;;;4.72;3.30;;;;;;;;;;5033228;28;20190;-70
2024/01/08 01:39:05;;;;;;;4.43;2.67;;;;;;;;;;5034914;28;20182;-70
2024/01/08 01:41:35;;;;;;;4.47;3.05;;;;;;;;;;5034655;28;20174;-70
2024/01/08 01:44:00;;;;;;;5.07;2.83;;;;;;;;;;5034802;28;20192;-70
2024/01/08 01:46:33;;;;;;;3.60;2.50;;;;;;;;;;5034971;28;20669;-70
2024/01/08 01:48:59;;;;;;;3.13;2.05;;;;;;;;;;5036197;28;20865;-71
2024/01/08 01:51:25;;;;;;;4.88;2.70;;;;;;;;;;5036142;28;20200;-71
2024/01/08 01:53:52;;;;;;;4.80;3.00;;;;;;;;;;5036099;28;20181;-70
2024/01/08 01:56:18;;;;;;;4.30;2.83;;;;;;;;;;5035768;28;20428;-69
2024/01/08 01:58:46;;;;;;;3.50;2.58;;;;;;;;;;5036010;28;20182;-69
2024/01/08 02:01:12;;;;;;;4.10;2.95;;;;;;;;;;5036319;28;20173;-70
2024/01/08 02:03:39;;;;;;;4.70;3.20;;;;;;;;;;5036615;28;20230;-69
2024/01/08 02:06:06;;;;;;;3.40;2.70;;;;;;;;;;5037434;28;20202;-69
2024/01/08 02:08:32;;;;;;;6.03;3.20;;;;;;;;;;5037582;28;20171;-68
2024/01/08 02:10:59;;;;;;;3.88;2.05;;;;;;;;;;5037348;28;20206;-70
2024/01/08 02:13:24;;;;;;;4.55;2.55;;;;;;;;;;5037677;28;20172;-68
2024/01/08 02:15:50;;;;;;;4.00;2.93;;;;;;;;;;5036706;28;20217;-68
2024/01/08 02:18:19;;;;;;;3.53;2.63;;;;;;;;;;5038122;28;20457;-69
2024/01/08 02:20:45;;;;;;;4.32;2.92;;;;;;;;;;5037341;28;20423;-70
2024/01/08 02:23:11;;;;;;;4.13;2.60;;;;;;;;;;5035769;28;20699;-69
2024/01/08 02:25:37;;;;;;;4.33;3.00;;;;;;;;;;5037374;28;20403;-68
2024/01/08 02:28:03;;;;;;;4.07;3.30;;;;;;;;;;5036237;28;20421;-69
2024/01/08 02:30:29;;;;;;;4.15;2.78;;;;;;;;;;5036346;28;20185;-69
2024/01/08 02:32:55;;;;;;;3.90;3.03;;;;;;;;;;5037376;28;20179;-69
2024/01/08 02:35:21;;;;;;;5.30;2.83;;;;;;;;;;5037586;28;20418;-69
2024/01/08 02:37:47;;;;;;;5.03;2.80;;;;;;;;;;5037993;28;20442;-69
2024/01/08 02:40:13;;;;;;;5.23;3.20;;;;;;;;;;5037326;28;20424;-68
2024/01/08 02:42:40;;;;;;;3.07;2.60;;;;;;;;;;5037269;28;20475;-68
2024/01/08 02:45:06;;;;;;;4.32;2.72;;;;;;;;;;5037005;28;20411;-68
2024/01/08 02:47:37;;;;;;;3.70;2.80;;;;;;;;;;5035777;28;20204;-69
2024/01/08 02:50:03;;;;;;;3.95;2.97;;;;;;;;;;5036890;28;20177;-69
2024/01/08 02:52:29;;;;;;;7.78;3.28;;;;;;;;;;5035813;28;20185;-69
2024/01/08 02:54:55;;;;;;;5.60;3.47;;;;;;;;;;5017587;28;20593;-69
2024/01/08 02:57:21;;;;;;;3.50;2.67;;;;;;;;;;5036030;28;21021;-69
2024/01/08 02:59:47;;;;;;;5.83;3.90;;;;;;;;;;5035785;28;20421;-69
2024/01/08 03:02:13;;;;;;;4.70;3.70;;;;;;;;;;5035511;28;20565;-68
2024/01/08 03:04:39;;;;;;;4.13;3.72;;;;;;;;;;5035500;28;20932;-69
2024/01/08 03:07:05;;;;;;;4.33;3.30;;;;;;;;;;5035495;28;20251;-69
2024/01/08 03:09:31;;;;;;;7.63;4.43;;;;;;;;;;5018922;28;20415;-68
2024/01/08 03:11:57;;;;;;;3.67;2.72;;;;;;;;;;5036317;28;20777;-70
2024/01/08 03:14:23;;;;;;;4.60;2.90;;;;;;;;;;5036492;28;20228;-69
2024/01/08 03:16:48;;;;;;;5.13;3.00;;;;;;;;;;5035504;28;20862;-69
2024/01/08 03:19:14;;;;;;;4.00;3.10;;;;;;;;;;5037822;28;20769;-69
2024/01/08 03:21:40;;;;;;;4.57;3.70;;;;;;;;;;5037422;28;20830;-69
2024/01/08 03:24:06;;;;;;;5.20;3.73;;;;;;;;;;5037490;28;20774;-70
2024/01/08 03:26:32;;;;;;;5.22;3.38;;;;;;;;;;5037835;28;20834;-69
2024/01/08 03:28:58;;;;;;;7.10;4.07;;;;;;;;;;5035539;28;20178;-68
2024/01/08 03:31:24;;;;;;;5.40;4.10;;;;;;;;;;5035243;28;20421;-69
2024/01/08 03:33:50;;;;;;;6.35;3.75;;;;;;;;;;5035354;28;20177;-68
2024/01/08 03:36:16;;;;;;;5.50;3.60;;;;;;;;;;5035728;28;20233;-68
2024/01/08 03:38:42;;;;;;;5.10;3.55;;;;;;;;;;5035452;28;20454;-68
2024/01/08 03:41:08;;;;;;;6.47;3.63;;;;;;;;;;5035120;28;20218;-68
2024/01/08 03:43:34;;;;;;;4.10;3.72;;;;;;;;;;5035112;28;20556;-68
2024/01/08 03:46:00;;;;;;;4.25;3.13;;;;;;;;;;5035573;28;20204;-68
2024/01/08 03:48:26;;;;;;;5.27;3.20;;;;;;;;;;5036807;28;20177;-68
2024/01/08 03:50:52;;;;;;;9.20;3.70;;;;;;;;;;5035292;28;20431;-68
2024/01/08 03:53:18;;;;;;;3.35;2.58;;;;;;;;;;5035335;28;20439;-68
2024/01/08 03:55:44;;;;;;;5.90;3.63;;;;;;;;;;5017508;28;20205;-68
2024/01/08 03:58:10;;;;;;;7.30;4.30;;;;;;;;;;5035543;28;20190;-70
2024/01/08 04:00:36;;;;;;;6.25;3.63;;;;;;;;;;5034557;28;20415;-68
2024/01/08 04:03:02;;;;;;;3.57;2.80;;;;;;;;;;5017022;28;20222;-69
2024/01/08 04:05:28;;;;;;;6.07;4.27;;;;;;;;;;5035108;28;20461;-68
2024/01/08 04:07:54;;;;;;;7.97;4.60;;;;;;;;;;5037456;28;20923;-68
2024/01/08 04:10:20;;;;;;;3.67;2.97;;;;;;;;;;5037684;28;20475;-69
2024/01/08 04:12:46;;;;;;;5.45;3.70;;;;;;;;;;5037476;28;20789;-68
2024/01/08 04:15:12;;;;;;;6.47;4.20;;;;;;;;;;5037112;28;20179;-70
2024/01/08 04:17:38;;;;;;;4.23;3.70;;;;;;;;;;5036933;28;21007;-68
2024/01/08 04:20:05;;;;;;;5.38;3.30;;;;;;;;;;5034986;28;20927;-68
2024/01/08 04:22:31;;;;;;;4.70;3.72;;;;;;;;;;5034477;28;20209;-68
2024/01/08 04:24:56;;;;;;;5.72;4.30;;;;;;;;;;5034510;28;20198;-67
2024/01/08 04:27:22;;;;;;;4.30;3.50;;;;;;;;;;5033235;28;20208;-68
2024/01/08 04:29:48;;;;;;;6.43;3.70;;;;;;;;;;5033682;28;20613;-69
2024/01/08 04:32:14;;;;;;;6.13;3.77;;;;;;;;;;5039802;28;20474;-69
2024/01/08 04:34:40;;;;;;;6.00;3.87;;;;;;;;;;5046821;28;20416;-68
2024/01/08 04:37:06;;;;;;;3.87;3.03;;;;;;;;;;5036867;28;20445;-68
2024/01/08 04:39:32;;;;;;;7.03;3.63;;;;;;;;;;5035229;28;20432;-69
2024/01/08 04:41:58;;;;;;;5.07;3.57;;;;;;;;;;5035238;28;20424;-68
2024/01/08 04:44:25;;;;;;;5.45;3.38;;;;;;;;;;5036291;28;20475;-69
2024/01/08 04:46:51;;;;;;;4.45;3.45;;;;;;;;;;5018027;28;20234;-68
2024/01/08 04:49:17;;;;;;;6.30;3.57;;;;;;;;;;5035294;28;20217;-68
2024/01/08 04:51:43;;;;;;;6.00;3.20;;;;;;;;;;5034674;28;20445;-68
2024/01/08 04:54:09;;;;;;;4.50;3.17;;;;;;;;;;5034643;28;20192;-68
2024/01/08 04:56:35;;;;;;;5.37;3.73;;;;;;;;;;5034606;28;20429;-68
2024/01/08 04:59:01;;;;;;;5.32;3.55;;;;;;;;;;5034587;28;20411;-68
2024/01/08 05:01:27;;;;;;;5.00;3.67;;;;;;;;;;5034690;28;20521;-68
2024/01/08 05:03:53;;;;;;;4.40;3.37;;;;;;;;;;5034531;28;20496;-68
2024/01/08 05:06:19;;;;;;;4.13;2.40;;;;;;;;;;5033772;28;20426;-68
2024/01/08 05:08:45;;;;;;;5.28;3.22;;;;;;;;;;5034671;28;20434;-68
2024/01/08 05:11:11;;;;;;;5.57;3.00;;;;;;;;;;5035998;28;20645;-68
2024/01/08 05:13:39;;;;;;;4.25;2.67;;;;;;;;;;5038288;28;20462;-68
2024/01/08 05:16:06;;;;;;;4.07;3.35;;;;;;;;;;5021295;28;20218;-68
2024/01/08 05:18:32;;;;;;;4.80;2.63;;;;;;;;;;5038739;28;20200;-69
2024/01/08 05:20:58;;;;;;;3.53;2.50;;;;;;;;;;5020727;28;20182;-68
2024/01/08 05:23:24;;;;;;;4.07;3.03;;;;;;;;;;5037791;28;20464;-68
2024/01/08 05:25:50;;;;;;;3.23;2.20;;;;;;;;;;5020696;28;20663;-69
2024/01/08 05:28:16;;;;;;;5.40;3.57;;;;;;;;;;5037602;28;20781;-67
2024/01/08 05:30:42;;;;;;;3.58;2.70;;;;;;;;;;5037767;28;20420;-68
2024/01/08 05:33:08;;;;;;;3.85;3.00;;;;;;;;;;5020403;28;20182;-69
2024/01/08 05:35:35;;;;;;;5.40;3.40;;;;;;;;;;5037531;28;20562;-68
2024/01/08 05:38:01;;;;;;;4.88;3.75;;;;;;;;;;5019374;28;20853;-69
2024/01/08 05:40:27;;;;;;;4.22;3.75;;;;;;;;;;5037678;28;20258;-69
2024/01/08 05:42:53;;;;;;;6.65;3.85;;;;;;;;;;5037112;28;20229;-69
2024/01/08 05:45:21;;;;;;;4.27;3.10;;;;;;;;;;5037282;28;20179;-69
2024/01/08 05:47:48;;;;;;;4.45;3.13;;;;;;;;;;5038150;28;20425;-69
2024/01/08 05:50:16;;;;;;;5.30;3.67;;;;;;;;;;5038384;28;20198;-68
2024/01/08 05:52:43;;;;;;;5.47;3.22;;;;;;;;;;5035878;28;20655;-68
2024/01/08 05:55:09;;;;;;;7.15;2.88;;;;;;;;;;5017755;28;20273;-70
2024/01/08 05:57:35;;;;;;;3.95;3.30;;;;;;;;;;5034887;28;20261;-69
2024/01/08 06:00:01;;;;;;;5.35;3.58;;;;;;;;;;5017025;28;20197;-70
2024/01/08 06:02:27;;;;;;;5.18;3.28;;;;;;;;;;5034476;28;20244;-68
2024/01/08 06:04:53;;;;;;;4.57;3.50;;;;;;;;;;5034849;28;20603;-69
2024/01/08 06:07:19;;;;;;;4.70;3.40;;;;;;;;;;5034538;28;20773;-68
2024/01/08 06:09:45;;;;;;;5.53;3.43;;;;;;;;;;5034756;28;20767;-69
2024/01/08 06:12:11;;;;;;;3.97;3.25;;;;;;;;;;5034509;28;20428;-70
2024/01/08 06:14:39;;;;;;;6.57;4.33;;;;;;;;;;5034607;28;20190;-68
2024/01/08 06:17:05;;;;;;;7.57;4.60;;;;;;;;;;5034297;28;20457;-70
2024/01/08 06:19:30;;;;;;;4.77;3.60;;;;;;;;;;5016818;28;20243;-68
2024/01/08 06:21:56;;;;;;;6.47;4.23;;;;;;;;;;5016132;28;20516;-68
2024/01/08 06:24:22;;;;;;;6.27;4.00;;;;;;;;;;5016176;28;20465;-68
2024/01/08 06:26:48;;;;;;;5.63;3.50;;;;;;;;;;5034228;28;20802;-70
2024/01/08 06:29:14;;;;;;;5.80;4.80;;;;;;;;;;5034579;28;20417;-68
2024/01/08 06:31:40;;;;;;;4.88;3.47;;;;;;;;;;5034012;28;20417;-70
2024/01/08 06:34:06;;;;;;;6.13;4.77;;;;;;;;;;5034240;28;20630;-67
2024/01/08 06:36:34;;;;;;;5.20;3.57;;;;;;;;;;5036149;28;20437;-69
2024/01/08 06:39:00;;;;;;;4.90;3.50;;;;;;;;;;5035762;28;20453;-70
2024/01/08 06:41:26;;;;;;;5.50;3.63;;;;;;;;;;5036213;28;20186;-69
2024/01/08 06:43:52;;;;;;;10.63;3.70;;;;;;;;;;5036254;28;20514;-69
2024/01/08 06:46:18;;;;;;;5.20;3.65;;;;;;;;;;5035784;28;20504;-68
2024/01/08 06:48:44;;;;;;;3.70;3.00;;;;;;;;;;5036012;28;20256;-69
2024/01/08 06:51:11;;;;;;;5.88;3.58;;;;;;;;;;5018503;28;20213;-68
2024/01/08 06:53:37;;;;;;;6.32;3.72;;;;;;;;;;5036259;28;20292;-68
2024/01/08 06:56:03;;;;;;;4.53;4.03;;;;;;;;;;5036331;28;20214;-69
2024/01/08 06:58:29;;;;;;;6.43;4.40;;;;;;;;;;5036648;28;20188;-69
2024/01/08 07:00:55;;;;;;;6.63;3.77;;;;;;;;;;5036055;28;20551;-68
2024/01/08 07:03:21;;;;;;;5.60;4.00;;;;;;;;;;5039033;28;20468;-68
2024/01/08 07:05:47;;;;;;;5.43;4.27;;;;;;;;;;5020172;28;20296;-68
2024/01/08 07:08:13;;;;;;;6.50;4.10;;;;;;;;;;5036201;28;20851;-68
2024/01/08 07:10:39;;;;;;;6.72;4.55;;;;;;;;;;5018628;28;20653;-68
2024/01/08 07:13:05;;;;;;;5.27;3.73;;;;;;;;;;5035467;28;20176;-67
2024/01/08 07:15:40;;;;;;;5.93;4.35;;;;;;;;;;5035337;28;20777;-68
2024/01/08 07:18:10;;;;;;;6.72;4.25;;;;;;;;;;5056071;22;20236;-71
2024/01/08 07:20:39;;;;;;;5.68;4.45;;;;;;;;;;5032932;28;20189;-70
2024/01/08 07:23:06;;;;;;;7.28;4.65;;;;;;;;;;5033136;28;20210;-67
2024/01/08 07:25:34;;;;;;;5.05;3.88;;;;;;;;;;5015344;28;20189;-68
2024/01/08 07:28:00;;;;;;;4.75;4.28;;;;;;;;;;5015290;28;20282;-69
2024/01/08 07:30:45;;;;;;;6.30;3.77;;;;;;;;;;5033197;28;20235;-72
2024/01/08 07:33:11;;;;;;;7.78;4.97;;;;;;;;;;5033039;28;20422;-69
2024/01/08 07:35:37;;;;;;;5.20;4.40;;;;;;;;;;5014584;28;20180;-67
2024/01/08 07:38:03;;;;;;;7.20;4.40;;;;;;;;;;5033145;28;20201;-70
2024/01/08 07:40:29;;;;;;;5.13;4.10;;;;;;;;;;5032657;28;20415;-70
2024/01/08 07:42:56;;;;;;;8.68;4.95;;;;;;;;;;5014843;28;20206;-69
2024/01/08 07:45:25;;;;;;;8.02;4.55;;;;;;;;;;5032890;28;20240;-69
2024/01/08 07:47:51;;;;;;;7.88;4.75;;;;;;;;;;5032904;28;20265;-71
2024/01/08 07:50:17;;;;;;;6.38;4.90;;;;;;;;;;5032826;28;20210;-71
2024/01/08 07:52:43;;;;;;;7.35;5.57;;;;;;;;;;5015305;28;20189;-68
2024/01/08 07:55:09;;;;;;;5.65;4.50;;;;;;;;;;5014755;28;20185;-70
2024/01/08 07:57:36;;;;;;;8.20;4.95;;;;;;;;;;5015075;28;20764;-69
2024/01/08 08:00:03;;;;;;;6.00;4.45;;;;;;;;;;5032744;28;20202;-69
2024/01/08 08:02:29;;;;;;;5.25;3.65;;;;;;;;;;5014466;28;20288;-70
2024/01/08 08:04:55;;;;;;;5.83;4.50;;;;;;;;;;5032411;28;20212;-69
2024/01/08 08:07:21;;;;;;;6.40;4.80;;;;;;;;;;5005554;28;20459;-69
2024/01/08 08:09:47;;;;;;;10.48;5.80;;;;;;;;;;5008312;28;20456;-70
2024/01/08 08:12:13;;;;;;;7.60;4.60;;;;;;;;;;5020182;28;20243;-71
2024/01/08 08:14:39;;;;;;;7.20;5.37;;;;;;;;;;5024662;28;20237;-69
2024/01/08 08:17:05;;;;;;;9.90;6.10;;;;;;;;;;4995302;28;20652;-69
2024/01/08 08:19:31;;;;;;;6.47;4.85;;;;;;;;;;5012443;28;20426;-70
2024/01/08 08:21:57;;;;;;;5.85;4.25;;;;;;;;;;4994894;28;20178;-70
2024/01/08 08:24:23;;;;;;;5.20;4.38;;;;;;;;;;4994487;28;20170;-69
2024/01/08 08:26:50;;;;;;;8.25;5.65;;;;;;;;;;5020505;28;20718;-69
2024/01/08 08:29:16;;;;;;;7.05;4.40;;;;;;;;;;5014284;28;20184;-70
2024/01/08 08:31:42;;;;;;;7.00;4.70;;;;;;;;;;5032006;28;20178;-69
2024/01/08 08:34:09;;;;;;;6.05;4.45;;;;;;;;;;5034116;28;20192;-70
2024/01/08 08:36:37;;;;;;;6.00;4.50;;;;;;;;;;5015994;28;20261;-70
2024/01/08 08:39:03;;;;;;;6.50;4.35;;;-1.60;14.60;;;;;;5031825;28;20676;-67
2024/01/08 08:41:29;;;;;;;10.53;4.30;;;-1.60;13.80;;;;;;5031598;28;20178;-68
2024/01/08 08:43:54;;;;;;;6.83;5.37;;;-1.80;13.30;;;;;;5031803;28;20210;-67
2024/01/08 08:46:20;;;;;;;5.13;4.10;;;-1.80;14.10;;;;;;5033492;28;20600;-69
2024/01/08 08:48:45;;;;;;;11.43;4.37;;;-1.70;15.40;;;;;;5018074;28;20188;-71
2024/01/08 08:51:11;;;;;;;7.23;5.20;;;-1.70;14.20;;;;;;5018260;28;20336;-68
2024/01/08 08:53:37;;;;;;;6.87;5.00;;;-1.60;14.20;;;;;;5035551;28;20189;-68
2024/01/08 08:56:04;;;;;;;6.60;4.50;;;-1.60;14.20;;;;;;5017920;28;20649;-69
2024/01/08 08:58:30;;;;;;;5.80;4.75;;;-1.60;13.40;;;;;;5018110;28;20186;-67
2024/01/08 09:00:56;;;;;;;6.30;4.93;;;-1.50;13.40;;;;;;5035658;28;20259;-70
2024/01/08 09:03:22;;;;;;;5.53;4.30;;;-1.60;13.40;;;;;;5026951;28;20312;-68
2024/01/08 09:05:47;;;;;;;6.53;4.13;;;-1.50;13.50;;;;;;5034540;28;20268;-70
2024/01/08 09:08:13;;;;;;;6.60;5.20;;;-1.50;13.20;;;;;;5035846;28;20190;-70
2024/01/08 09:10:39;;;;;;;7.27;4.40;;;-1.60;12.40;;;;;;5020261;28;20185;-70
2024/01/08 09:13:04;;;;;;;6.20;5.33;;;-1.70;13.40;;;;;;5020621;28;20193;-70
2024/01/08 09:15:30;;;;;;;6.40;4.77;;;-1.70;13.30;;;;;;5020044;28;20183;-68
2024/01/08 09:17:56;;;;;;;5.37;4.07;;;-1.60;13.30;;;;;;5018117;28;20222;-68
2024/01/08 09:20:22;;;;;;;7.00;5.10;;;-1.50;12.10;;;;;;5019020;28;20460;-68
2024/01/08 09:22:48;;;;;;;7.47;5.10;;;-1.50;12.60;;;;;;5036253;28;20193;-69
2024/01/08 09:25:14;;;;;;;7.67;4.67;;;-1.50;12.50;;;;;;5034423;28;20196;-69
2024/01/08 09:27:42;;;;;;;8.20;5.10;;;-1.40;11.90;;;;;;5036271;28;21138;-69
2024/01/08 09:30:08;;;;;;;6.20;3.92;;;-1.60;11.70;;;;;;5018764;28;20182;-69
2024/01/08 09:32:34;;;;;;;6.45;4.22;;;-1.80;11.60;;;;;;5017965;28;20684;-69
2024/01/08 09:35:00;;;;;;;4.40;4.00;;;-1.80;11.60;;;;;;5018729;28;20183;-69
2024/01/08 09:37:25;;;;;;;7.10;4.23;;;-1.90;11.00;;;;;;5036188;28;20206;-69
2024/01/08 09:39:51;;;;;;;5.30;4.37;;;-2.00;12.20;;;;;;5017724;28;20449;-69
2024/01/08 09:42:18;;;;;;;7.17;4.33;;;-1.90;11.70;;;;;;5017916;28;20675;-69
2024/01/08 09:44:47;;;;;;;6.18;3.90;;;-1.80;11.90;;;;;;5018109;28;20658;-68
2024/01/08 09:47:14;;;;;;;9.85;5.30;;;-1.70;11.00;;;;;;5035735;28;20249;-69
2024/01/08 09:49:41;;;;;;;6.53;5.15;;;-1.60;11.90;;;;;;5035424;28;20182;-68
2024/01/08 09:52:11;;;;;;;4.95;4.45;;;-1.70;10.10;;;;;;5035721;28;20181;-68
2024/01/08 09:54:37;;;;;;;6.30;4.70;;;-1.80;10.50;;;;;;5035503;28;20178;-70
2024/01/08 09:57:04;;;;;;;6.60;4.47;;;-1.80;11.60;;;;;;5034529;28;20186;-69
2024/01/08 09:59:31;;;;;;;7.72;4.82;;;-1.60;11.00;;;;;;5035033;28;20178;-69
2024/01/08 10:01:56;;;;;;;6.40;3.97;;;-1.50;9.90;;;;;;5034588;28;20186;-69
2024/01/08 10:04:25;;;;;;;4.40;3.90;;;-1.70;9.70;;;;;;5034842;28;20170;-67
2024/01/08 10:07:06;;;;;;;4.95;3.65;;;-1.70;10.50;;;;;;5034724;28;20201;-68
2024/01/08 10:09:31;;;;;;;7.20;4.07;;;-1.70;9.90;;;;;;5035163;28;20166;-68
2024/01/08 10:11:57;;;;;;;6.90;4.30;;;-1.90;9.50;;;;;;5017093;28;20189;-66
2024/01/08 10:14:24;;;;;;;5.10;3.90;;;-2.00;9.80;;;;;;5034863;28;20172;-69
2024/01/08 10:16:49;;;;;;;6.70;4.65;;;-2.00;9.80;;;;;;5034470;28;20448;-69
2024/01/08 10:19:18;;;;;;;6.13;3.80;;;-1.80;10.30;;;;;;5034156;28;20177;-70
2024/01/08 10:21:45;;;;;;;5.40;3.88;;;-1.80;9.70;;;;;;5033887;28;20177;-68
2024/01/08 10:24:10;;;;;;;6.18;3.88;;;-1.80;10.00;;;;;;5035192;28;20209;-69
2024/01/08 10:26:38;;;;;;;5.70;4.07;;;-1.80;9.20;;;;;;5016393;28;20194;-68
2024/01/08 10:29:04;;;;;;;6.05;4.00;;;-1.70;10.10;;;;;;5016184;28;20902;-69
2024/01/08 10:31:29;;;;;;;6.63;3.77;;;-1.80;8.80;;;;;;5033663;28;20178;-70
2024/01/08 10:34:04;;;;;;;5.47;4.27;;;-1.70;9.60;;;;;;5016298;28;20222;-70
2024/01/08 10:36:32;;;;;;;7.10;3.60;;;-1.60;9.40;;;;;;5016225;28;20248;-69
2024/01/08 10:39:02;;;;;;;6.90;4.30;;;-1.40;9.20;;;;;;5034180;28;20178;-70
2024/01/08 10:41:28;;;;;;;7.28;3.80;;;-1.40;8.30;;;;;;5016096;28;20185;-72
2024/01/08 10:43:53;;;;;;;4.03;3.50;;;-1.40;8.00;;;;;;5015944;28;20205;-69
2024/01/08 10:46:20;;;;;;;5.30;4.07;;;-1.40;8.20;;;;;;5033692;28;20199;-69
2024/01/08 10:48:46;;;;;;;5.95;3.28;;;-1.50;7.50;;;;;;5016103;28;20183;-68
2024/01/08 10:51:16;;;;;;;5.20;3.60;;;-1.60;7.40;;;;;;5015826;28;20273;-69
2024/01/08 10:53:53;;;;;;;5.10;3.60;;;-1.80;7.30;;;;;;5015589;28;20269;-69
2024/01/08 10:56:24;;;;;;;4.97;3.60;;;-1.70;8.10;;;;;;5015737;28;20206;-69
2024/01/08 10:59:03;;;;;;;5.40;4.07;;;-1.60;7.40;;;;;;5015802;28;20209;-70
2024/01/08 11:01:35;;;;;;;7.38;4.07;;;-1.50;7.50;;;;;;5033495;28;20238;-70
2024/01/08 11:04:05;;;;;;;4.43;3.70;;;-1.60;7.40;;;;;;5033670;28;20203;-70
2024/01/08 11:06:33;;;;;;;5.13;3.53;;;-1.50;7.40;;;;;;5016137;28;20198;-70
2024/01/08 11:09:01;;;;;;;5.53;3.83;;;-1.50;7.50;;;;;;5033760;28;20182;-69
2024/01/08 11:11:27;;;;;;;7.40;4.45;;;-1.30;7.60;;;;;;5016252;28;20185;-70
2024/01/08 11:13:53;;;;;;;6.80;4.10;;;-1.30;6.70;;;;;;5033117;28;20190;-70
2024/01/08 11:16:29;;;;;;;6.30;4.18;;;-1.20;6.40;;;;;;5037292;28;20459;-68
2024/01/08 11:19:17;;;;;;;4.85;3.78;;;-1.40;5.80;;;;;;5034955;28;20676;-69
2024/01/08 11:21:43;;;;;;;8.23;4.35;;;-1.40;6.30;;;;;;5016068;28;20231;-69
2024/01/08 11:24:09;;;;;;;3.63;3.20;;;-1.50;6.20;;;;;;5015720;28;20211;-68
2024/01/08 11:26:41;;;;;;;6.30;4.10;;;-1.50;6.70;;;;;;5033909;28;20510;-68
2024/01/08 11:29:11;;;;;;;5.53;3.80;;;-1.50;6.50;;;;;;5021246;28;20218;-69
2024/01/08 11:32:08;;;;;;;11.35;3.75;;;-1.50;7.00;;;;;;5020120;28;20179;-69
2024/01/08 11:35:07;;;;;;;7.13;4.97;;;-1.30;6.60;;;;;;5017188;28;20187;-69
2024/01/08 11:37:41;;;;;;;7.28;4.10;;;-1.20;6.00;;;;;;5013695;28;20226;-69
2024/01/08 11:40:12;;;;;;;8.73;3.65;;;-1.20;5.30;;;;;;5013388;28;20194;-70
2024/01/08 11:42:39;;;;;;;6.40;3.65;;;-1.40;6.10;;;;;;4995740;28;20221;-70
2024/01/08 11:45:05;;;;;;;7.75;4.40;;;-1.30;6.70;;;;;;5014018;28;20182;-70
2024/01/08 11:47:32;;;;;;;5.70;4.30;;;-1.40;6.20;;;;;;5013853;28;20202;-69
2024/01/08 11:49:58;;;;;;;5.53;3.78;;;-1.40;6.70;;;;;;5012999;28;20646;-70
2024/01/08 11:52:26;;;;;;;5.13;3.77;;;-1.30;7.10;;;;;;5013040;28;20226;-70
2024/01/08 11:54:53;;;;;;;6.13;4.40;;;-1.20;6.40;;;;;;5014438;28;20206;-70
2024/01/08 11:57:19;;;;;;;6.43;4.45;;;-1.40;5.90;;;;;;5027039;28;20728;-70
2024/01/08 11:59:45;;;;;;;5.20;3.53;;;-1.40;6.70;;;;;;5032512;28;20557;-70
2024/01/08 12:02:14;;;;;;;7.73;5.00;;;-1.40;6.60;;;;;;5010899;28;20186;-71
2024/01/08 12:04:50;;;;;;;6.47;4.13;;;-1.30;7.10;;;;;;5012010;28;20182;-71
2024/01/08 12:07:16;;;;;;;5.60;4.85;;;-1.40;7.00;;;;;;5028068;28;20216;-71
2024/01/08 12:09:42;;;;;;;7.35;4.55;;;-1.30;6.90;;;;;;5024222;28;20192;-72
2024/01/08 12:12:09;;;;;;;7.93;4.50;;;-1.10;6.60;;;;;;5034779;28;20210;-71
2024/01/08 12:14:39;;;;;;;5.95;3.85;;;-1.10;6.80;;;;;;5052794;28;20181;-71
2024/01/08 12:17:05;;;;;;;5.82;3.92;;;-1.10;6.80;;;;;;5019773;28;20268;-71
2024/01/08 12:19:53;;;;;;;6.45;4.30;;;-1.10;6.40;;;;;;5015169;28;20181;-70
2024/01/08 12:22:20;;;;;;;6.55;4.07;;;-1.00;6.60;;;;;;5031551;28;20248;-71
2024/01/08 12:24:48;;;;;;;5.80;3.60;;;-1.10;5.60;;;;;;5032365;28;20178;-71
2024/01/08 12:27:19;;;;;;;6.70;2.95;;;-0.90;6.10;;;;;;5014626;28;20199;-70
2024/01/08 12:29:45;;;;;;;6.20;4.10;;;-1.10;6.20;;;;;;5015225;28;20609;-70
2024/01/08 12:32:15;;;;;;;6.80;4.13;;;-1.00;6.50;;;;;;5012413;28;20180;-71
2024/01/08 12:34:41;;;;;;;8.07;4.75;;;-1.00;6.40;;;;;;4994875;28;20187;-71
2024/01/08 12:37:08;;;;;;;5.37;3.43;;;-0.80;5.80;;;;;;5007279;28;20204;-71
2024/01/08 12:39:35;;;;;;;6.15;3.50;;;-1.20;6.50;;;;;;5011016;28;20556;-70
2024/01/08 12:42:02;;;;;;;7.13;4.60;;;-1.00;6.50;;;;;;5016058;28;20190;-71
2024/01/08 12:44:32;;;;;;;5.80;4.10;;;-1.10;5.90;;;;;;5011664;28;20229;-71
2024/01/08 12:47:00;;;;;;;6.15;2.78;;;-1.10;5.90;;;;;;5011478;28;20305;-70
2024/01/08 12:49:27;;;;;;;6.50;4.65;;;-1.10;6.40;;;;;;4995164;28;20190;-71
2024/01/08 12:51:58;;;;;;;7.35;4.60;;;-1.00;7.00;;;;;;5012625;28;20180;-71
2024/01/08 12:54:24;;;;;;;4.40;3.67;;;-1.00;6.50;;;;;;4994996;28;20175;-71
2024/01/08 12:56:50;;;;;;;6.40;3.70;;;-1.00;7.20;;;;;;4994558;28;20211;-71
2024/01/08 12:59:16;;;;;;;5.57;4.00;;;-0.80;7.50;;;;;;5012282;28;20724;-70
2024/01/08 13:01:43;;;;;;;6.80;5.13;;;-0.60;5.40;;;;;;5020474;28;20422;-73
2024/01/08 13:04:12;;;;;;;6.32;4.30;;;-0.70;5.40;;;;;;5032343;28;20306;-72
2024/01/08 13:06:39;;;;;;;5.15;3.53;;;-0.70;5.90;;;;;;5014346;28;20686;-70
2024/01/08 13:09:07;;;;;;;5.10;4.15;;;-0.70;5.80;;;;;;5014645;28;20190;-70
2024/01/08 13:11:36;;;;;;;5.85;4.15;;;-0.50;5.70;;;;;;5010108;28;20201;-69
2024/01/08 13:14:13;;;;;;;8.77;4.88;;;-0.40;5.70;;;;;;4994568;28;20193;-70
2024/01/08 13:16:41;;;;;;;5.25;3.47;;;-0.30;5.30;;;;;;5012133;28;20288;-70
2024/01/08 13:19:14;;;;;;;6.55;4.50;;;-0.30;5.60;;;;;;4994200;28;20179;-70
2024/01/08 13:21:41;;;;;;;8.02;3.67;;;-0.30;5.10;;;;;;4993976;28;20258;-69
2024/01/08 13:24:09;;;;;;;7.13;4.65;;;-0.60;4.10;;;;;;5015106;28;20204;-69
2024/01/08 13:26:35;;;;;;;3.97;3.55;;;-0.80;4.50;;;;;;4998703;28;20205;-70
2024/01/08 13:29:01;;;;;;;4.60;3.30;;;-0.80;5.40;;;;;;5028451;28;20217;-71
2024/01/08 13:31:27;;;;;;;5.93;3.93;;;-1.00;6.00;;;;;;5030063;28;20421;-70
2024/01/08 13:33:52;;;;;;;6.20;5.50;;;-1.20;7.70;;;;;;5028906;28;20197;-70
2024/01/08 13:36:18;;;;;;;6.50;4.30;;;-1.20;7.80;;;;;;5024864;28;20212;-71
2024/01/08 13:38:46;;;;;;;5.73;4.27;;;-1.10;8.10;;;;;;5029126;28;20194;-71
2024/01/08 13:41:12;;;;;;;7.70;4.28;;;-1.10;7.70;;;;;;5015225;28;20208;-71
2024/01/08 13:43:37;;;;;;;5.93;3.63;;;-1.10;8.10;;;;;;5016994;28;20689;-70
2024/01/08 13:46:03;;;;;;;6.47;4.40;;;-1.00;7.80;;;;;;5035203;28;20657;-71
2024/01/08 13:48:28;;;;;;;7.50;4.20;;;-1.10;7.50;;;;;;5024000;28;20599;-68
2024/01/08 13:50:57;;;;;;;4.80;4.03;;;-1.00;7.80;;;;;;5032094;28;20179;-71
2024/01/08 13:53:22;;;;;;;8.80;4.75;;;-1.10;7.50;;;;;;5018791;28;20186;-70
2024/01/08 13:55:51;;;;;;;9.40;4.47;;;-1.10;7.80;;;;;;5027331;28;21041;-72
2024/01/08 13:58:17;;;;;;;3.92;3.15;;;-1.10;7.70;;;;;;5020965;28;20210;-71